createdAt,value
2018-07-16T00:00:26.092Z,21.40
2018-07-16T00:02:54.402Z,21.30
2018-07-16T00:05:22.630Z,21.30
2018-07-16T00:07:50.896Z,21.30
2018-07-16T00:10:19.491Z,21.10
2018-07-16T00:15:15.819Z,21.20
2018-07-16T00:17:44.118Z,21.20
2018-07-16T00:20:12.387Z,21.20
2018-07-16T00:22:40.673Z,21.10
2018-07-16T00:25:08.920Z,21.10
2018-07-16T00:27:37.188Z,21.00
2018-07-16T00:30:05.490Z,21.00
2018-07-16T00:35:01.792Z,20.90
2018-07-16T00:37:30.556Z,20.90
2018-07-16T00:39:58.851Z,20.80
2018-07-16T00:42:27.121Z,20.80
2018-07-16T00:44:55.377Z,20.70
2018-07-16T00:47:23.637Z,20.60
2018-07-16T00:49:51.903Z,20.70
2018-07-16T00:52:20.196Z,20.60
2018-07-16T00:54:48.457Z,20.60
2018-07-16T00:59:44.697Z,20.50
2018-07-16T01:04:40.905Z,20.40
2018-07-16T01:07:09.199Z,20.30
2018-07-16T01:09:37.423Z,20.20
2018-07-16T01:12:05.739Z,20.20
2018-07-16T01:14:33.983Z,20.30
2018-07-16T01:17:02.304Z,20.20
2018-07-16T01:19:30.548Z,20.20
2018-07-16T01:21:58.789Z,20.10
2018-07-16T01:24:27.110Z,20.10
2018-07-16T01:26:56.272Z,20.10
2018-07-16T01:29:24.527Z,20.10
2018-07-16T01:31:52.797Z,20.00
2018-07-16T01:36:49.110Z,19.90
2018-07-16T01:39:17.360Z,19.80
2018-07-16T01:41:45.647Z,19.80
2018-07-16T01:44:13.952Z,19.70
2018-07-16T01:46:42.204Z,19.70
2018-07-16T01:49:10.478Z,19.70
2018-07-16T01:51:38.749Z,19.80
2018-07-16T01:56:35.707Z,19.60
2018-07-16T01:59:03.988Z,19.70
2018-07-16T02:01:32.224Z,19.70
2018-07-16T02:04:00.548Z,19.60
2018-07-16T02:06:28.835Z,19.60
2018-07-16T02:08:57.664Z,19.60
2018-07-16T02:11:26.068Z,19.40
2018-07-16T02:13:54.328Z,19.30
2018-07-16T02:16:22.578Z,19.30
2018-07-16T02:18:51.025Z,19.20
2018-07-16T02:21:19.332Z,19.10
2018-07-16T02:23:47.610Z,19.20
2018-07-16T02:26:15.923Z,19.20
2018-07-16T02:28:44.194Z,19.10
2018-07-16T02:31:12.451Z,19.10
2018-07-16T02:33:40.674Z,19.00
2018-07-16T02:36:09.666Z,19.00
2018-07-16T02:38:38.000Z,19.00
2018-07-16T02:41:06.791Z,18.90
2018-07-16T02:43:35.096Z,18.90
2018-07-16T02:46:03.389Z,19.00
2018-07-16T02:48:31.637Z,19.00
2018-07-16T02:50:59.904Z,19.10
2018-07-16T02:53:28.136Z,18.90
2018-07-16T02:55:56.410Z,18.80
2018-07-16T02:58:24.650Z,18.90
2018-07-16T03:00:52.898Z,18.90
2018-07-16T03:03:21.187Z,18.80
2018-07-16T03:05:49.452Z,18.60
2018-07-16T03:08:17.786Z,18.50
2018-07-16T03:10:46.063Z,18.50
2018-07-16T03:13:14.352Z,18.60
2018-07-16T03:15:42.590Z,18.60
2018-07-16T03:18:10.950Z,18.60
2018-07-16T03:20:39.148Z,18.40
2018-07-16T03:23:07.524Z,18.20
2018-07-16T03:25:35.789Z,18.10
2018-07-16T03:28:04.101Z,18.10
2018-07-16T03:30:32.493Z,18.00
2018-07-16T03:33:00.772Z,18.10
2018-07-16T03:35:28.990Z,18.20
2018-07-16T03:37:57.381Z,18.20
2018-07-16T03:40:25.628Z,18.10
2018-07-16T03:42:55.120Z,18.10
2018-07-16T03:47:51.442Z,18.00
2018-07-16T03:50:19.679Z,18.10
2018-07-16T03:52:47.931Z,18.20
2018-07-16T03:55:16.228Z,18.30
2018-07-16T03:57:45.111Z,18.20
2018-07-16T04:00:13.412Z,18.30
2018-07-16T04:02:41.763Z,18.40
2018-07-16T04:05:10.038Z,18.50
2018-07-16T04:07:38.307Z,18.30
2018-07-16T04:10:06.578Z,18.40
2018-07-16T04:12:34.809Z,18.40
2018-07-16T04:15:03.128Z,18.30
2018-07-16T04:17:32.151Z,18.40
2018-07-16T04:20:00.429Z,18.50
2018-07-16T04:22:28.686Z,18.50
2018-07-16T04:24:57.004Z,18.30
2018-07-16T04:27:25.288Z,18.30
2018-07-16T04:29:53.602Z,18.50
2018-07-16T04:32:21.874Z,18.50
2018-07-16T04:34:50.132Z,18.30
2018-07-16T04:37:18.360Z,18.50
2018-07-16T04:39:46.633Z,18.60
2018-07-16T04:42:15.619Z,18.50
2018-07-16T04:44:43.891Z,18.50
2018-07-16T04:47:12.178Z,18.30
2018-07-16T04:49:40.418Z,18.20
2018-07-16T04:52:08.796Z,18.20
2018-07-16T04:54:37.060Z,18.30
2018-07-16T04:57:05.369Z,18.40
2018-07-16T04:59:33.652Z,18.30
2018-07-16T05:02:01.955Z,18.30
2018-07-16T05:04:30.464Z,18.40
2018-07-16T05:06:59.540Z,18.40
2018-07-16T05:09:29.040Z,18.50
2018-07-16T05:11:57.288Z,18.50
2018-07-16T05:14:25.530Z,18.50
2018-07-16T05:16:53.775Z,18.50
2018-07-16T05:19:22.068Z,18.40
2018-07-16T05:21:50.286Z,18.40
2018-07-16T05:24:18.564Z,18.40
2018-07-16T05:26:47.955Z,18.50
2018-07-16T05:29:16.343Z,18.70
2018-07-16T05:31:46.120Z,18.70
2018-07-16T05:36:42.263Z,18.80
2018-07-16T05:39:10.481Z,18.80
2018-07-16T05:41:38.752Z,18.90
2018-07-16T05:44:07.036Z,18.90
2018-07-16T05:46:35.305Z,19.00
2018-07-16T05:49:03.620Z,19.00
2018-07-16T05:51:31.880Z,19.10
2018-07-16T05:54:00.162Z,19.30
2018-07-16T05:56:28.374Z,19.30
2018-07-16T05:58:56.595Z,19.50
2018-07-16T06:01:24.857Z,19.70
2018-07-16T06:03:53.107Z,19.70
2018-07-16T06:06:21.371Z,19.80
2018-07-16T06:08:49.676Z,19.90
2018-07-16T06:11:18.013Z,19.90
2018-07-16T06:13:46.262Z,20.00
2018-07-16T06:16:14.552Z,20.20
2018-07-16T06:18:42.799Z,20.40
2018-07-16T06:21:11.002Z,20.50
2018-07-16T06:23:39.333Z,20.80
2018-07-16T06:26:07.603Z,20.90
2018-07-16T06:28:36.496Z,21.00
2018-07-16T06:31:04.933Z,21.10
2018-07-16T06:33:33.205Z,21.20
2018-07-16T06:36:01.489Z,21.20
2018-07-16T06:38:29.789Z,21.30
2018-07-16T06:43:26.036Z,21.60
2018-07-16T06:45:54.885Z,21.70
2018-07-16T06:48:24.008Z,21.90
2018-07-16T06:50:52.720Z,22.00
2018-07-16T06:53:25.113Z,22.30
2018-07-16T06:55:53.367Z,22.80
2018-07-16T06:58:21.626Z,23.10
2018-07-16T07:00:49.927Z,23.70
2018-07-16T07:03:18.207Z,24.40
2018-07-16T07:05:46.495Z,25.00
2018-07-16T07:08:14.767Z,25.80
2018-07-16T07:10:43.085Z,26.00
2018-07-16T07:13:11.448Z,26.40
2018-07-16T07:15:39.760Z,26.60
2018-07-16T07:20:36.024Z,27.80
2018-07-16T07:23:04.421Z,27.70
2018-07-16T07:25:32.796Z,28.10
2018-07-16T07:28:01.182Z,28.40
2018-07-16T07:30:29.461Z,28.50
2018-07-16T07:32:57.816Z,29.40
2018-07-16T07:35:26.142Z,30.00
2018-07-16T07:37:55.134Z,30.10
2018-07-16T07:40:24.243Z,30.20
2018-07-16T07:42:52.473Z,30.60
2018-07-16T07:45:21.356Z,30.80
2018-07-16T07:47:49.642Z,31.50
2018-07-16T07:50:18.588Z,31.20
2018-07-16T07:52:46.847Z,31.40
2018-07-16T07:55:16.222Z,31.90
2018-07-16T07:57:44.279Z,32.30
2018-07-16T08:00:12.542Z,32.80
2018-07-16T08:02:42.533Z,33.20
2018-07-16T08:05:10.898Z,33.20
2018-07-16T08:07:39.888Z,33.30
2018-07-16T08:10:08.128Z,33.50
2018-07-16T08:12:36.408Z,33.50
2018-07-16T08:15:04.747Z,34.40
2018-07-16T08:17:32.990Z,34.70
2018-07-16T08:20:01.376Z,34.80
2018-07-16T08:22:29.673Z,34.90
2018-07-16T08:24:58.233Z,34.80
2018-07-16T08:27:26.484Z,34.90
2018-07-16T08:29:55.209Z,34.80
2018-07-16T08:32:24.253Z,35.30
2018-07-16T08:34:52.648Z,35.80
2018-07-16T08:37:21.347Z,35.20
2018-07-16T08:39:49.780Z,35.50
2018-07-16T08:42:18.061Z,36.00
2018-07-16T08:44:46.343Z,36.30
2018-07-16T08:47:14.629Z,36.10
2018-07-16T08:49:43.315Z,36.40
2018-07-16T08:52:11.778Z,37.20
2018-07-16T08:54:40.019Z,36.30
2018-07-16T08:57:08.662Z,35.90
2018-07-16T08:59:36.933Z,35.20
2018-07-16T09:02:05.421Z,36.50
2018-07-16T09:04:33.724Z,37.30
2018-07-16T09:07:03.052Z,37.60
2018-07-16T09:11:59.968Z,38.10
2018-07-16T09:14:28.352Z,39.00
2018-07-16T09:16:56.697Z,39.70
2018-07-16T09:21:53.340Z,40.40
2018-07-16T09:24:21.608Z,39.90
2018-07-16T09:26:49.939Z,40.20
2018-07-16T09:29:18.208Z,40.70
2018-07-16T09:31:46.517Z,40.90
2018-07-16T09:36:43.115Z,40.30
2018-07-16T09:39:11.512Z,39.20
2018-07-16T09:41:39.750Z,39.10
2018-07-16T09:44:07.956Z,39.80
2018-07-16T09:46:36.259Z,40.80
2018-07-16T09:49:04.561Z,41.80
2018-07-16T09:54:00.844Z,41.60
2018-07-16T09:56:29.173Z,41.90
2018-07-16T09:58:57.383Z,41.60
2018-07-16T10:01:50.117Z,41.80
2018-07-16T10:04:18.417Z,41.60
2018-07-16T10:06:46.656Z,42.20
2018-07-16T10:09:14.955Z,43.30
2018-07-16T10:11:43.189Z,42.10
2018-07-16T10:14:11.436Z,42.10
2018-07-16T10:16:39.702Z,42.10
2018-07-16T10:19:08.015Z,42.60
2018-07-16T10:21:36.303Z,41.50
2018-07-16T10:26:32.532Z,42.10
2018-07-16T10:29:00.823Z,42.50
2018-07-16T10:31:29.091Z,43.00
2018-07-16T10:33:57.529Z,43.50
2018-07-16T10:36:25.693Z,44.20
2018-07-16T10:38:53.980Z,43.50
2018-07-16T10:41:22.255Z,41.10
2018-07-16T10:43:50.680Z,41.90
2018-07-16T10:46:19.018Z,43.10
2018-07-16T10:48:47.295Z,42.50
2018-07-16T10:51:15.528Z,43.20
2018-07-16T10:53:43.826Z,44.00
2018-07-16T10:56:12.114Z,42.90
2018-07-16T10:58:40.412Z,42.40
2018-07-16T11:01:08.786Z,42.00
2018-07-16T11:03:37.102Z,42.40
2018-07-16T11:06:10.664Z,42.90
2018-07-16T11:08:38.974Z,42.90
2018-07-16T11:11:07.264Z,42.70
2018-07-16T11:13:35.579Z,43.30
2018-07-16T11:16:04.022Z,42.50
2018-07-16T11:18:32.291Z,43.30
2018-07-16T11:23:28.614Z,43.60
2018-07-16T11:25:56.883Z,44.00
2018-07-16T11:28:25.294Z,45.20
2018-07-16T11:33:22.537Z,44.90
2018-07-16T11:35:50.885Z,44.70
2018-07-16T11:38:19.111Z,43.80
2018-07-16T11:40:47.658Z,44.20
2018-07-16T11:43:15.979Z,44.90
2018-07-16T11:48:12.291Z,44.50
2018-07-16T11:50:40.591Z,45.30
2018-07-16T11:53:08.953Z,44.90
2018-07-16T11:55:37.226Z,45.10
2018-07-16T11:58:05.497Z,42.90
2018-07-16T12:00:33.748Z,43.40
2018-07-16T12:03:01.978Z,44.40
2018-07-16T12:05:30.233Z,44.20
2018-07-16T12:07:58.490Z,44.40
2018-07-16T12:10:26.832Z,44.80
2018-07-16T12:12:55.085Z,44.10
2018-07-16T12:17:51.397Z,44.30
2018-07-16T12:20:19.712Z,45.10
2018-07-16T12:22:48.011Z,45.10
2018-07-16T12:25:16.292Z,44.40
2018-07-16T12:27:45.077Z,44.70
2018-07-16T12:30:13.673Z,45.20
2018-07-16T12:32:42.008Z,45.30
2018-07-16T12:35:10.253Z,45.50
2018-07-16T12:37:38.563Z,44.70
2018-07-16T12:42:35.294Z,44.50
2018-07-16T12:45:04.629Z,43.40
2018-07-16T12:47:33.012Z,43.40
2018-07-16T12:50:01.436Z,42.40
2018-07-16T12:52:29.738Z,43.00
2018-07-16T12:54:58.074Z,43.70
2018-07-16T12:57:26.416Z,43.70
2018-07-16T13:02:22.976Z,41.60
2018-07-16T13:04:51.235Z,41.10
2018-07-16T13:09:47.712Z,39.40
2018-07-16T13:12:15.991Z,38.40
2018-07-16T13:14:44.295Z,37.50
2018-07-16T13:17:12.607Z,37.50
2018-07-16T13:19:40.895Z,37.40
2018-07-16T13:22:09.160Z,37.80
2018-07-16T13:24:37.441Z,37.40
2018-07-16T13:27:05.751Z,36.80
2018-07-16T13:29:34.011Z,36.80
2018-07-16T13:32:02.260Z,36.20
2018-07-16T13:34:30.525Z,35.50
2018-07-16T13:36:58.862Z,35.70
2018-07-16T13:39:27.200Z,35.80
2018-07-16T13:41:56.764Z,35.30
2018-07-16T13:44:25.019Z,35.20
2018-07-16T13:46:53.286Z,35.10
2018-07-16T13:49:21.549Z,35.30
2018-07-16T13:51:49.993Z,35.40
2018-07-16T13:54:20.936Z,35.40
2018-07-16T13:56:51.619Z,35.30
2018-07-16T13:59:20.317Z,35.40
2018-07-16T14:01:48.853Z,35.40
2018-07-16T14:04:17.572Z,35.20
2018-07-16T14:06:47.313Z,35.40
2018-07-16T14:09:15.616Z,35.40
2018-07-16T14:11:43.904Z,35.30
2018-07-16T14:14:12.176Z,35.20
2018-07-16T14:16:40.451Z,35.30
2018-07-16T14:19:08.832Z,35.20
2018-07-16T14:21:37.372Z,34.80
2018-07-16T14:24:05.680Z,34.90
2018-07-16T14:26:34.082Z,35.10
2018-07-16T14:29:02.345Z,34.90
2018-07-16T14:31:30.671Z,35.00
2018-07-16T14:33:58.940Z,35.00
2018-07-16T14:36:27.268Z,34.70
2018-07-16T14:38:55.559Z,34.90
2018-07-16T14:41:23.880Z,34.70
2018-07-16T14:43:52.150Z,34.90
2018-07-16T14:46:20.445Z,34.80
2018-07-16T14:48:48.670Z,34.80
2018-07-16T14:51:16.967Z,34.70
2018-07-16T14:53:45.447Z,34.80
2018-07-16T14:56:13.899Z,34.80
2018-07-16T14:58:42.182Z,34.40
2018-07-16T15:01:10.744Z,34.60
2018-07-16T15:03:39.603Z,34.80
2018-07-16T15:06:08.503Z,34.70
2018-07-16T15:08:36.919Z,34.90
2018-07-16T15:11:05.279Z,35.00
2018-07-16T15:13:33.568Z,34.70
2018-07-16T15:18:30.333Z,34.50
2018-07-16T15:20:59.031Z,34.70
2018-07-16T15:23:27.087Z,34.70
2018-07-16T15:25:55.354Z,34.50
2018-07-16T15:28:23.632Z,34.60
2018-07-16T15:30:51.918Z,34.60
2018-07-16T15:33:21.914Z,34.10
2018-07-16T15:35:50.955Z,34.00
2018-07-16T15:38:19.296Z,33.90
2018-07-16T15:40:47.795Z,34.00
2018-07-16T15:45:44.219Z,34.60
2018-07-16T15:48:12.599Z,34.50
2018-07-16T15:50:40.987Z,34.00
2018-07-16T15:53:09.280Z,33.90
2018-07-16T15:55:37.561Z,33.80
2018-07-16T15:58:05.944Z,33.50
2018-07-16T16:00:34.588Z,33.50
2018-07-16T16:03:02.892Z,33.40
2018-07-16T16:05:31.183Z,33.20
2018-07-16T16:07:59.670Z,33.30
2018-07-16T16:10:27.969Z,33.20
2018-07-16T16:12:56.284Z,33.40
2018-07-16T16:15:24.612Z,33.60
2018-07-16T16:17:52.851Z,33.60
2018-07-16T16:22:49.170Z,33.60
2018-07-16T16:25:17.808Z,33.80
2018-07-16T16:27:46.073Z,33.80
2018-07-16T16:30:14.672Z,33.70
2018-07-16T16:32:43.201Z,33.60
2018-07-16T16:35:11.464Z,33.50
2018-07-16T16:37:39.758Z,33.50
2018-07-16T16:40:08.085Z,33.50
2018-07-16T16:42:36.312Z,33.30
2018-07-16T16:45:04.721Z,33.40
2018-07-16T16:47:32.992Z,33.40
2018-07-16T16:50:01.256Z,33.40
2018-07-16T16:54:57.798Z,32.70
2018-07-16T16:57:26.089Z,32.50
2018-07-16T17:02:22.401Z,32.10
2018-07-16T17:04:50.680Z,32.30
2018-07-16T17:07:19.022Z,32.40
2018-07-16T17:09:47.327Z,32.60
2018-07-16T17:12:15.608Z,32.40
2018-07-16T17:14:44.154Z,32.40
2018-07-16T17:17:12.687Z,32.30
2018-07-16T17:19:40.968Z,32.60
2018-07-16T17:22:09.229Z,32.60
2018-07-16T17:24:37.502Z,32.70
2018-07-16T17:27:05.868Z,32.70
2018-07-16T17:29:34.219Z,32.70
2018-07-16T17:32:02.466Z,32.50
2018-07-16T17:34:30.819Z,32.40
2018-07-16T17:36:59.117Z,32.20
2018-07-16T17:39:27.386Z,31.90
2018-07-16T17:41:55.607Z,31.90
2018-07-16T17:44:23.931Z,31.60
2018-07-16T17:46:52.204Z,31.70
2018-07-16T17:49:20.862Z,31.70
2018-07-16T17:51:49.119Z,31.70
2018-07-16T17:54:17.410Z,31.70
2018-07-16T17:56:45.661Z,31.70
2018-07-16T17:59:13.909Z,31.60
2018-07-16T18:01:42.227Z,31.60
2018-07-16T18:04:10.363Z,31.70
2018-07-16T18:09:08.102Z,31.70
2018-07-16T18:11:36.491Z,31.60
2018-07-16T18:14:05.224Z,31.30
2018-07-16T18:16:33.788Z,31.40
2018-07-16T18:19:02.321Z,31.20
2018-07-16T18:21:31.013Z,31.30
2018-07-16T18:23:59.343Z,31.10
2018-07-16T18:26:27.638Z,30.90
2018-07-16T18:28:55.891Z,30.90
2018-07-16T18:31:24.160Z,30.80
2018-07-16T18:33:52.480Z,30.90
2018-07-16T18:36:20.749Z,30.90
2018-07-16T18:38:49.304Z,31.00
2018-07-16T18:41:18.090Z,30.90
2018-07-16T18:46:14.646Z,30.90
2018-07-16T18:48:42.940Z,30.80
2018-07-16T18:51:11.216Z,30.70
2018-07-16T18:53:39.536Z,30.70
2018-07-16T18:56:07.816Z,30.60
2018-07-16T18:58:36.054Z,30.50
2018-07-16T19:01:04.950Z,30.40
2018-07-16T19:03:33.533Z,30.40
2018-07-16T19:06:01.800Z,30.30
2018-07-16T19:08:30.070Z,30.20
2018-07-16T19:10:58.435Z,30.10
2018-07-16T19:13:26.725Z,30.00
2018-07-16T19:15:55.052Z,30.00
2018-07-16T19:18:23.292Z,29.90
2018-07-16T19:20:51.662Z,29.80
2018-07-16T19:23:20.135Z,29.80
2018-07-16T19:25:48.429Z,29.70
2018-07-16T19:28:16.662Z,29.50
2018-07-16T19:30:44.972Z,29.40
2018-07-16T19:33:13.232Z,29.20
2018-07-16T19:35:45.235Z,29.10
2018-07-16T19:38:13.473Z,29.00
2018-07-16T19:40:42.754Z,28.90
2018-07-16T19:43:11.078Z,28.90
2018-07-16T19:45:39.432Z,28.80
2018-07-16T19:48:07.699Z,28.70
2018-07-16T19:50:36.196Z,28.60
2018-07-16T19:53:04.556Z,28.50
2018-07-16T19:55:32.838Z,28.60
2018-07-16T19:58:01.166Z,28.50
2018-07-16T20:00:29.569Z,28.40
2018-07-16T20:02:57.803Z,28.40
2018-07-16T20:05:26.119Z,28.30
2018-07-16T20:07:54.362Z,28.20
2018-07-16T20:10:22.608Z,28.10
2018-07-16T20:12:51.002Z,28.00
2018-07-16T20:15:19.836Z,27.90
2018-07-16T20:17:49.125Z,27.80
2018-07-16T20:20:17.763Z,27.80
2018-07-16T20:22:46.261Z,27.70
2018-07-16T20:25:14.965Z,27.60
2018-07-16T20:27:43.312Z,27.50
2018-07-16T20:30:11.610Z,27.40
2018-07-16T20:32:39.954Z,27.30
2018-07-16T20:35:08.297Z,27.20
2018-07-16T20:37:36.585Z,27.10
2018-07-16T20:40:05.111Z,26.90
2018-07-16T20:42:33.357Z,26.70
2018-07-16T20:45:01.644Z,26.60
2018-07-16T20:47:30.005Z,26.60
2018-07-16T20:49:58.352Z,26.60
2018-07-16T20:52:26.710Z,26.60
2018-07-16T20:54:55.036Z,26.60
2018-07-16T20:57:23.384Z,26.60
2018-07-16T20:59:51.757Z,26.50
2018-07-16T21:02:20.046Z,26.50
2018-07-16T21:04:48.312Z,26.40
2018-07-16T21:07:16.716Z,26.40
2018-07-16T21:09:45.080Z,26.30
2018-07-16T21:12:13.379Z,26.20
2018-07-16T21:17:09.845Z,26.10
2018-07-16T21:19:38.177Z,26.00
2018-07-16T21:22:06.489Z,25.90
2018-07-16T21:24:34.773Z,25.80
2018-07-16T21:27:03.052Z,25.70
2018-07-16T21:29:31.408Z,25.80
2018-07-16T21:31:59.783Z,25.70
2018-07-16T21:39:25.596Z,25.40
2018-07-16T21:41:53.901Z,25.40
2018-07-16T21:44:22.808Z,25.30
2018-07-16T21:46:51.124Z,25.20
2018-07-16T21:49:19.609Z,25.10
2018-07-16T21:51:47.877Z,25.10
2018-07-16T21:54:16.154Z,25.00
2018-07-16T21:56:44.519Z,25.00
2018-07-16T21:59:16.255Z,25.10
2018-07-16T22:01:44.595Z,25.00
2018-07-16T22:04:12.836Z,24.80
2018-07-16T22:06:41.107Z,24.60
2018-07-16T22:09:09.720Z,24.60
2018-07-16T22:11:37.962Z,24.70
2018-07-16T22:14:06.267Z,24.70
2018-07-16T22:16:34.582Z,24.70
2018-07-16T22:19:03.210Z,24.50
2018-07-16T22:21:31.576Z,24.40
2018-07-16T22:24:06.339Z,24.40
2018-07-16T22:26:34.676Z,24.30
2018-07-16T22:29:02.963Z,24.20
2018-07-16T22:31:31.212Z,24.10
2018-07-16T22:33:59.568Z,24.10
2018-07-16T22:36:27.790Z,24.20
2018-07-16T22:38:56.044Z,24.10
2018-07-16T22:41:24.320Z,24.20
2018-07-16T22:43:52.590Z,24.10
2018-07-16T22:46:20.860Z,24.00
2018-07-16T22:51:17.186Z,23.80
2018-07-16T22:53:45.680Z,23.80
2018-07-16T22:56:13.883Z,23.80
2018-07-16T22:58:48.700Z,23.70
2018-07-16T23:01:16.973Z,23.60
2018-07-16T23:03:45.336Z,23.70
2018-07-16T23:06:13.567Z,23.70
2018-07-16T23:08:41.843Z,23.60
2018-07-16T23:11:10.102Z,23.60
2018-07-16T23:13:38.331Z,23.60
2018-07-16T23:16:06.608Z,23.60
2018-07-16T23:18:34.911Z,23.60
2018-07-16T23:21:03.119Z,23.50
2018-07-16T23:23:31.400Z,23.50
2018-07-16T23:25:59.701Z,23.50
2018-07-16T23:28:27.976Z,23.50
2018-07-16T23:30:56.259Z,23.30
2018-07-16T23:33:24.574Z,23.30
2018-07-16T23:35:52.863Z,23.40
2018-07-16T23:38:21.126Z,23.20
2018-07-16T23:40:49.380Z,23.10
2018-07-16T23:43:17.619Z,23.00
2018-07-16T23:45:45.852Z,23.00
2018-07-16T23:48:14.116Z,23.00
2018-07-16T23:50:42.390Z,23.00
2018-07-16T23:53:10.686Z,22.90
2018-07-16T23:55:38.979Z,23.00
2018-07-16T23:58:07.220Z,23.00
